Time;durP1;ratioP1;P1;durP2;ratioP2;P2;SDS_P1;SDS_P2;PMS_P1;PMS_P2;Temp;Humidity;BMP_temperature;BMP_pressure;BME280_temperature;BME280_humidity;BME280_pressure;Samples;Min_cycle;Max_cycle;Signal;HPM_P1;HPM_P2
2022/08/28 00:02:42;;;;;;;3.38;1.63;;;;;;;15.65;94.14;101511.00;6222809;28;20512;-80
2022/08/28 00:05:44;;;;;;;3.90;1.75;;;;;;;15.72;93.52;101507.03;6223567;28;20042;-80
2022/08/28 00:08:46;;;;;;;5.35;1.52;;;;;;;15.74;93.45;101505.13;6223472;28;20050;-80
2022/08/28 00:11:49;;;;;;;1.67;1.08;;;;;;;15.71;93.75;101506.19;6222781;28;20417;-80
2022/08/28 00:14:50;;;;;;;3.28;1.60;;;;;;;15.66;93.38;101504.75;6222597;28;20137;-80
2022/08/28 00:17:51;;;;;;;4.32;1.88;;;;;;;15.59;94.92;101508.72;6223345;28;20050;-80
2022/08/28 00:20:53;;;;;;;4.22;1.40;;;;;;;15.58;94.10;101512.28;6223322;28;20073;-79
2022/08/28 00:23:56;;;;;;;9.05;1.63;;;;;;;15.55;95.13;101508.06;6222554;28;20521;-79
2022/08/28 00:30:16;;;;;;;6.22;2.05;;;;;;;15.47;96.50;101511.16;6222502;28;20049;-80
2022/08/28 00:33:21;;;;;;;3.85;1.67;;;;;;;15.42;95.39;101517.69;6222737;28;20528;-80
2022/08/28 00:36:22;;;;;;;1.45;1.25;;;;;;;15.34;96.28;101506.72;6225802;28;20402;-80
2022/08/28 00:39:25;;;;;;;2.83;1.35;;;;;;;15.40;96.95;101509.84;6227645;28;20539;-79
2022/08/28 00:42:27;;;;;;;12.48;1.95;;;;;;;15.40;96.81;101507.22;6227282;28;20045;-79
2022/08/28 00:45:29;;;;;;;3.00;1.45;;;;;;;15.38;96.96;101511.72;6227140;28;20130;-80
2022/08/28 00:48:31;;;;;;;6.32;1.88;;;;;;;15.41;96.72;101506.25;6227479;28;20060;-80
2022/08/28 00:54:58;;;;;;;5.85;2.05;;;;;;;15.45;96.57;101504.28;6226896;28;20718;-80
2022/08/28 00:58:00;;;;;;;6.22;3.47;;;;;;;15.50;96.78;101504.84;6227676;28;20049;-81
2022/08/28 01:01:01;;;;;;;8.55;2.05;;;;;;;15.50;97.04;101509.28;6226561;28;20165;-80
2022/08/28 01:04:04;;;;;;;2.90;1.85;;;;;;;15.47;96.05;101505.03;6227173;28;20054;-80
2022/08/28 01:07:09;;;;;;;7.10;2.08;;;;;;;15.40;96.26;101507.22;6227501;28;20053;-80
2022/08/28 01:10:16;;;;;;;6.60;2.15;;;;;;;15.37;97.50;101506.53;6226827;28;20058;-80
2022/08/28 01:13:18;;;;;;;6.03;2.03;;;;;;;15.33;97.06;101510.31;6226698;28;20050;-79
2022/08/28 01:16:21;;;;;;;5.78;1.70;;;;;;;15.29;98.00;101511.44;6226458;28;20072;-81
2022/08/28 01:19:30;;;;;;;5.68;1.88;;;;;;;15.27;98.36;101508.91;6226844;28;20053;-80
2022/08/28 01:22:36;;;;;;;6.00;1.80;;;;;;;15.29;98.49;101509.63;6226480;28;20053;-81
2022/08/28 01:25:41;;;;;;;4.47;1.92;;;;;;;15.27;97.82;101516.00;6253463;23;20076;-80
2022/08/28 01:28:43;;;;;;;4.65;1.85;;;;;;;15.29;97.90;101512.28;6251409;28;20049;-80
2022/08/28 01:31:44;;;;;;;7.22;1.75;;;;;;;15.29;97.67;101519.38;6250948;28;20060;-79
2022/08/28 01:34:45;;;;;;;7.80;2.83;;;;;;;15.24;97.93;101517.03;6251280;28;20049;-79
2022/08/28 01:37:47;;;;;;;5.22;1.95;;;;;;;15.20;98.16;101513.69;6250828;28;20057;-80
2022/08/28 01:40:53;;;;;;;6.18;2.50;;;;;;;15.18;98.36;101510.31;6251043;28;20053;-80
2022/08/28 01:43:55;;;;;;;3.20;1.73;;;;;;;15.16;98.33;101520.13;6250521;28;20490;-80
2022/08/28 01:46:58;;;;;;;5.78;2.25;;;;;;;15.11;98.31;101521.34;6250890;28;20049;-80
2022/08/28 01:49:59;;;;;;;5.03;2.05;;;;;;;15.06;98.74;101516.31;6250500;28;20053;-80
2022/08/28 01:53:01;;;;;;;4.30;1.73;;;;;;;15.03;99.02;101523.59;6251407;28;20056;-80
2022/08/28 01:56:08;;;;;;;8.85;2.00;;;;;;;14.97;99.86;101528.31;6250355;28;20053;-80
2022/08/28 01:59:10;;;;;;;4.63;2.30;;;;;;;14.97;99.28;101524.81;6250713;28;20046;-81
2022/08/28 02:02:12;;;;;;;6.20;2.10;;;;;;;14.94;100.00;101530.28;6250048;28;20048;-79
2022/08/28 02:05:14;;;;;;;8.10;1.98;;;;;;;14.94;99.95;101539.09;6249822;28;20404;-80
2022/08/28 02:08:17;;;;;;;4.30;2.15;;;;;;;14.89;99.52;101532.34;6250895;28;20057;-79
2022/08/28 02:11:21;;;;;;;6.00;1.90;;;;;;;14.81;99.79;101530.19;6250268;28;20148;-79
2022/08/28 02:14:22;;;;;;;8.63;1.95;;;;;;;14.65;100.00;101537.28;6249784;28;20076;-80
2022/08/28 02:17:24;;;;;;;4.90;1.98;;;;;;;14.61;100.00;101533.97;6249573;28;20045;-79
2022/08/28 02:20:26;;;;;;;4.82;1.40;;;;;;;14.59;100.00;101532.38;6246635;28;20060;-79
2022/08/28 02:23:27;;;;;;;6.85;1.90;;;;;;;14.50;100.00;101535.53;6249761;28;20091;-80
2022/08/28 02:26:31;;;;;;;3.58;1.83;;;;;;;14.56;100.00;101538.66;6249886;28;20049;-80
2022/08/28 02:29:33;;;;;;;3.00;1.80;;;;;;;14.57;100.00;101539.50;6249485;28;20136;-81
2022/08/28 02:32:34;;;;;;;3.33;1.70;;;;;;;14.56;100.00;101538.66;6248610;28;20050;-80
2022/08/28 02:35:36;;;;;;;3.33;1.65;;;;;;;14.63;100.00;101536.53;6227712;28;20534;-81
2022/08/28 02:38:38;;;;;;;3.25;2.20;;;;;;;14.59;100.00;101535.00;6225459;28;20422;-80
2022/08/28 02:41:40;;;;;;;5.70;1.70;;;;;;;14.56;100.00;101538.66;6224789;28;20053;-79
2022/08/28 02:44:42;;;;;;;5.60;2.05;;;;;;;14.51;100.00;101532.78;6224443;28;20076;-79
2022/08/28 02:47:45;;;;;;;4.57;1.48;;;;;;;14.49;100.00;101532.03;6234335;28;20049;-79
2022/08/28 02:50:46;;;;;;;5.65;1.48;;;;;;;14.49;100.00;101528.50;6232716;28;20057;-80
2022/08/28 02:53:49;;;;;;;3.95;1.67;;;;;;;14.54;100.00;101532.63;6239455;28;20053;-80
2022/08/28 02:56:53;;;;;;;8.88;1.85;;;;;;;14.60;100.00;101529.63;6247587;28;20053;-79
2022/08/28 02:59:55;;;;;;;7.30;1.67;;;;;;;14.59;100.00;101524.44;6242540;28;20046;-80
2022/08/28 03:02:56;;;;;;;4.40;1.65;;;;;;;14.51;100.00;101529.28;6248465;28;20045;-81
2022/08/28 03:05:58;;;;;;;3.55;1.70;;;;;;;14.52;100.00;101531.00;6248045;28;20053;-80
2022/08/28 03:08:59;;;;;;;5.20;2.00;;;;;;;14.57;100.00;101535.06;6239747;28;20076;-80
2022/08/28 03:12:03;;;;;;;7.53;1.67;;;;;;;14.58;100.00;101534.16;6247995;28;20049;-80
2022/08/28 03:15:06;;;;;;;4.10;2.17;;;;;;;14.52;100.00;101536.28;6247664;28;20056;-80
2022/08/28 03:18:08;;;;;;;2.03;1.13;;;;;;;14.53;100.00;101530.03;6248322;28;20138;-79
2022/08/28 03:21:10;;;;;;;6.95;2.10;;;;;;;14.52;100.00;101528.34;6247838;28;20060;-79
2022/08/28 03:24:11;;;;;;;6.03;1.80;;;;;;;14.51;100.00;101518.72;6247490;28;20056;-80
2022/08/28 03:27:14;;;;;;;8.77;2.35;;;;;;;14.50;100.00;101523.16;6247869;28;20053;-80
2022/08/28 03:30:16;;;;;;;6.97;2.25;;;;;;;14.45;100.00;101528.69;6242763;28;20445;-81
2022/08/28 03:33:18;;;;;;;4.35;2.67;;;;;;;14.46;100.00;101522.44;6245194;28;20056;-80
2022/08/28 03:36:22;;;;;;;6.18;1.65;;;;;;;14.45;100.00;101515.47;6247405;28;20056;-80
2022/08/28 03:39:23;;;;;;;4.05;1.77;;;;;;;14.40;100.00;101524.59;6247716;28;20417;-80
2022/08/28 03:42:26;;;;;;;13.82;2.97;;;;;;;14.33;100.00;101520.59;6247231;28;20045;-79
2022/08/28 03:45:27;;;;;;;6.03;1.88;;;;;;;14.30;100.00;101526.03;6247239;28;20057;-80
2022/08/28 03:48:31;;;;;;;6.95;1.77;;;;;;;14.28;100.00;101517.34;6247614;28;20053;-80
2022/08/28 03:51:33;;;;;;;3.28;1.58;;;;;;;14.22;100.00;101529.13;6247597;28;20049;-79
2022/08/28 03:54:35;;;;;;;4.95;2.10;;;;;;;14.26;100.00;101520.09;6247362;28;20045;-79
2022/08/28 03:57:38;;;;;;;5.18;1.77;;;;;;;14.26;100.00;101530.66;6248221;28;20053;-80
2022/08/28 04:00:40;;;;;;;7.03;1.75;;;;;;;14.26;100.00;101541.25;6247711;28;20398;-80
2022/08/28 04:03:42;;;;;;;5.82;1.70;;;;;;;14.21;100.00;101541.47;6247461;28;20049;-79
2022/08/28 04:06:43;;;;;;;3.97;1.58;;;;;;;14.25;100.00;101546.59;6247553;28;20516;-80
2022/08/28 04:09:45;;;;;;;4.72;1.90;;;;;;;14.25;100.00;101543.94;6247326;28;20053;-79
2022/08/28 04:12:47;;;;;;;5.70;1.60;;;;;;;14.19;100.00;101546.00;6247571;28;20056;-80
2022/08/28 04:15:57;;;;;;;5.45;1.77;;;;;;;14.19;100.00;101539.88;6246963;28;20061;-80
2022/08/28 04:18:58;;;;;;;6.13;2.15;;;;;;;14.23;100.00;101545.84;6247563;28;20415;-80
2022/08/28 04:22:00;;;;;;;4.00;1.75;;;;;;;14.21;100.00;101549.41;6246796;28;20060;-80
2022/08/28 04:25:01;;;;;;;5.28;1.77;;;;;;;14.12;100.00;101547.28;6246976;28;20045;-80
2022/08/28 04:28:04;;;;;;;5.80;2.58;;;;;;;14.07;100.00;101553.75;6247037;28;20054;-80
2022/08/28 04:31:07;;;;;;;5.68;1.70;;;;;;;13.99;100.00;101548.91;6247065;28;20049;-80
2022/08/28 04:34:09;;;;;;;8.07;2.17;;;;;;;13.95;100.00;101542.94;6246920;28;20045;-80
2022/08/28 04:37:11;;;;;;;2.25;1.48;;;;;;;14.02;100.00;101550.50;6247399;28;20046;-80
2022/08/28 04:40:14;;;;;;;4.10;1.90;;;;;;;14.02;100.00;101561.09;6247036;28;20057;-79
2022/08/28 04:43:17;;;;;;;4.20;2.00;;;;;;;14.03;100.00;101558.34;6246965;28;20098;-79
2022/08/28 04:46:19;;;;;;;6.93;2.55;;;;;;;14.00;100.00;101555.91;6246825;28;20421;-80
2022/08/28 04:49:20;;;;;;;2.63;1.42;;;;;;;14.03;100.00;101565.44;6247347;28;20140;-80
2022/08/28 04:52:22;;;;;;;3.03;1.65;;;;;;;14.04;100.00;101567.16;6247062;28;20060;-80
2022/08/28 04:55:23;;;;;;;8.60;2.05;;;;;;;13.97;100.00;101569.25;6246602;28;20056;-80
2022/08/28 04:58:26;;;;;;;5.50;1.90;;;;;;;14.01;100.00;101569.97;6245208;28;20551;-80
2022/08/28 05:01:30;;;;;;;8.23;1.70;;;;;;;14.06;100.00;101575.84;6234450;28;20405;-79
2022/08/28 05:04:31;;;;;;;7.05;2.33;;;;;;;14.06;100.00;101571.41;6232644;28;20572;-80
2022/08/28 05:07:34;;;;;;;5.70;2.13;;;;;;;14.10;100.00;101566.81;6239563;28;20049;-79
2022/08/28 05:10:36;;;;;;;7.20;1.23;;;;;;;14.07;100.00;101567.81;6238047;28;20041;-79
2022/08/28 05:13:38;;;;;;;7.40;1.73;;;;;;;14.15;100.00;101572.69;6246595;28;20049;-80
2022/08/28 05:16:42;;;;;;;3.47;1.80;;;;;;;14.18;100.00;101564.59;6247691;28;20061;-80
2022/08/28 05:19:43;;;;;;;3.58;1.75;;;;;;;14.12;100.00;101573.69;6246350;28;20463;-79
2022/08/28 05:22:45;;;;;;;3.58;1.77;;;;;;;14.22;100.00;101574.06;6250434;28;20042;-80
2022/08/28 05:25:48;;;;;;;3.88;1.48;;;;;;;14.21;100.00;101578.47;6250981;28;20064;-80
2022/08/28 05:28:51;;;;;;;10.73;2.08;;;;;;;14.24;100.00;101587.19;6251000;28;20053;-79
2022/08/28 05:31:52;;;;;;;3.75;1.90;;;;;;;14.27;100.00;101585.25;6250930;28;20053;-79
2022/08/28 05:34:53;;;;;;;1.65;1.23;;;;;;;14.26;100.00;101586.19;6250773;28;20060;-80
2022/08/28 05:37:55;;;;;;;6.28;1.85;;;;;;;14.31;100.00;101585.94;6251227;28;20107;-79
2022/08/28 05:40:56;;;;;;;8.35;2.05;;;;;;;14.33;100.00;101587.53;6250557;28;20049;-80
2022/08/28 05:44:00;;;;;;;5.47;1.70;;;;;;;14.37;100.00;101589.06;6250538;28;20076;-80
2022/08/28 05:47:02;;;;;;;2.65;1.40;;;;;;;14.35;100.00;101588.31;6251070;28;20053;-80
2022/08/28 05:50:03;;;;;;;4.35;1.80;;;;;;;14.34;100.00;101591.03;6250893;28;20057;-79
2022/08/28 05:53:05;;;;;;;6.78;1.80;;;;;;;14.41;100.00;101585.31;6250749;28;20049;-81
2022/08/28 05:56:07;;;;;;;3.92;1.15;;;;;;;14.56;100.00;101591.56;6250565;28;20060;-80
2022/08/28 05:59:10;;;;;;;3.90;1.75;;;;;;;14.62;100.00;101583.28;6251008;28;20425;-80
2022/08/28 06:02:12;;;;;;;6.30;2.67;;;;;;;14.65;100.00;101587.56;6250370;28;20060;-81
2022/08/28 06:05:13;;;;;;;4.95;1.40;;;;;;;14.57;100.00;101589.78;6249865;28;20056;-79
2022/08/28 06:08:14;;;;;;;5.82;1.73;;;;;;;14.62;100.00;101587.72;6250363;28;20054;-80
2022/08/28 06:11:19;;;;;;;3.85;1.77;;;;;;;14.70;100.00;101594.28;6250498;28;20049;-79
2022/08/28 06:14:22;;;;;;;5.47;1.27;;;;;;;14.71;100.00;101595.13;6250081;28;20049;-81
2022/08/28 06:17:23;;;;;;;3.53;1.15;;;;;;;14.82;100.00;101599.84;6250926;28;20053;-80
2022/08/28 06:20:25;;;;;;;5.00;1.80;;;;;;;14.83;100.00;101596.22;6249668;28;20072;-81
2022/08/28 06:23:26;;;;;;;7.57;1.40;;;;;;;14.87;100.00;101595.97;6250145;28;20049;-81
2022/08/28 06:26:28;;;;;;;8.68;1.65;;;;;;;14.83;100.00;101601.53;6249824;28;20046;-79
2022/08/28 06:29:30;;;;;;;6.72;1.65;;;;;;;14.89;100.00;101607.31;6250632;28;20057;-82
2022/08/28 06:32:32;;;;;;;2.38;1.17;;;;;;;14.95;99.10;101612.28;6249379;28;20049;-80
2022/08/28 06:35:35;;;;;;;2.08;1.23;;;;;;;14.98;100.00;101614.72;6249571;28;20049;-81
2022/08/28 06:38:36;;;;;;;4.43;1.73;;;;;;;15.04;100.00;101610.03;6250284;28;20069;-81
2022/08/28 06:41:41;;;;;;;9.27;1.50;;;;;;;15.08;100.00;101616.81;6249700;28;20524;-82
2022/08/28 06:44:44;;;;;;;2.50;1.52;;;;;;;15.13;99.87;101623.59;6249641;28;20494;-80
2022/08/28 06:47:47;;;;;;;4.85;1.10;;;;;;;15.22;98.32;101628.34;6250775;28;20049;-82
2022/08/28 06:50:51;;;;;;;6.72;1.70;;;;;;;15.28;97.69;101629.78;6250619;28;20048;-80
2022/08/28 06:53:52;;;;;;;2.13;1.17;;;;;;;15.30;97.42;101627.88;6249481;28;20049;-80
2022/08/28 06:56:53;;;;;;;2.63;0.88;;;;;;;15.47;96.84;101632.16;6249995;28;20060;-75
2022/08/28 06:59:57;;;;;;;1.40;1.00;;;;;;;15.53;95.84;101621.19;6249255;28;20064;-80
2022/08/28 07:02:59;;;;;;;3.28;1.23;;;;;;;15.53;96.05;101629.16;6246366;28;20057;-79
2022/08/28 07:06:03;;;;;;;3.92;1.35;;;;;;;15.55;95.92;101632.56;6240304;28;20050;-76
2022/08/28 07:09:06;;;;;;;4.95;0.98;;;;;;;15.67;96.39;101637.19;6243750;28;20045;-80
2022/08/28 07:12:08;;;;;;;8.32;1.15;;;;;;;15.81;95.55;101628.38;6248101;28;20068;-80
2022/08/28 07:15:11;;;;;;;2.20;1.50;;;;;;;15.90;94.63;101627.81;6246688;28;20041;-81
2022/08/28 07:18:12;;;;;;;2.45;1.35;;;;;;;15.96;93.43;101623.94;6249163;28;20049;-82
2022/08/28 07:21:14;;;;;;;3.22;1.50;;;;;;;16.00;93.16;101633.41;6248033;28;20053;-79
2022/08/28 07:24:16;;;;;;;7.07;1.23;;;;;;;16.08;91.17;101638.22;6250976;28;20056;-81
2022/08/28 07:27:18;;;;;;;1.13;0.85;;;;;;;16.05;90.35;101633.13;6254790;28;20447;-81
2022/08/28 07:30:21;;;;;;;4.50;1.13;;;;;;;16.08;89.99;101638.22;6253159;28;20046;-80
2022/08/28 07:33:22;;;;;;;5.07;1.10;;;;;;;16.05;89.51;101636.63;6251024;28;20489;-79
2022/08/28 07:36:25;;;;;;;12.13;1.63;;;;;;;16.08;90.05;101636.44;6250716;28;20045;-82
2022/08/28 07:39:27;;;;;;;3.78;1.13;;;;;;;16.15;90.40;101631.59;6253091;28;20048;-82
2022/08/28 07:45:57;;;;;;;4.65;1.20;;;;;;;16.40;86.61;101636.22;6249989;28;20441;-81
2022/08/28 07:48:59;;;;;;;2.33;1.00;;;;;;;16.38;86.34;101640.75;6250213;28;20060;-81
2022/08/28 07:52:01;;;;;;;3.00;1.10;;;;;;;16.41;87.08;101633.44;6250646;28;20057;-80
2022/08/28 07:55:04;;;;;;;3.92;1.13;;;;;;;16.47;85.83;101643.66;6248486;28;20414;-79
2022/08/28 07:58:06;;;;;;;5.18;0.90;;;;;;;16.53;84.71;101644.22;6248422;28;20076;-80
2022/08/28 08:01:08;;;;;;;2.92;1.10;;;;;;;16.60;84.45;101646.38;6248818;28;20053;-79
2022/08/28 08:04:12;;;;;;;4.22;0.93;;;;;;;16.62;81.95;101636.53;6248116;28;20045;-80
2022/08/28 08:07:13;;;;;;;1.85;1.13;;;;;;;16.67;82.46;101636.25;6248964;28;20412;-81
2022/08/28 08:10:15;;;;;;;6.78;1.17;;;;;;;16.70;81.50;101642.19;6249510;28;20410;-79
2022/08/28 08:13:16;;;;;;;3.20;1.02;;;;;;;16.87;81.63;101645.59;6249075;28;20508;-79
2022/08/28 08:16:22;;;;;;;1.95;0.93;;;;;;;16.95;81.82;101637.97;6248969;28;20191;-81
2022/08/28 08:19:23;;;;;;;1.40;0.88;;;;;;;17.11;80.87;101646.63;6252820;28;20076;-79
2022/08/28 08:22:24;;;;;;;6.88;1.15;;;;;;;17.08;80.51;101646.84;6249684;28;20049;-77
2022/08/28 08:25:26;;;;;;;2.88;0.88;;;;;;;17.18;79.51;101642.63;6250491;28;20050;-81
2022/08/28 08:28:29;;;;;;;4.68;1.02;;;;;;;17.17;80.80;101650.69;6249744;28;20054;-82
2022/08/28 08:31:32;;;;;;;3.58;1.25;;;;;;;17.25;80.85;101643.88;6249067;28;20128;-81
2022/08/28 08:34:38;;;;;;;4.03;0.88;;;;;;;17.45;78.77;101639.91;6253250;28;20056;-82
2022/08/28 08:37:39;;;;;;;4.30;1.13;;;;;;;17.62;78.29;101643.19;6253188;28;20060;-81
2022/08/28 08:40:41;;;;;;;2.72;1.48;;;;;;;17.58;77.29;101647.91;6251317;28;20045;-81
2022/08/28 08:43:52;;;;;;;3.45;1.10;;;;;;;17.50;77.69;101642.25;6253327;28;20452;-81
2022/08/28 08:47:02;;;;;;;2.42;1.08;;;;;;;17.58;77.85;101641.72;6254068;28;20064;-81
2022/08/28 08:50:07;;;;;;;5.00;1.00;;;;;;;17.70;77.76;101643.53;6252240;28;20057;-81
2022/08/28 08:53:23;;;;;;;4.47;1.10;;;;;;;17.96;74.26;101650.59;6250868;28;20057;-79
2022/08/28 08:56:24;;;;;;;6.25;1.60;;;;;;;17.89;74.93;101648.44;6257696;28;20394;-81
2022/08/28 08:59:28;;;;;;;6.00;1.02;;;;;;;17.79;75.04;101656.22;6255036;28;20424;-79
2022/08/28 09:02:38;;;;;;;5.88;0.60;;;;;;;17.80;75.88;101649.94;6252383;28;20057;-80
2022/08/28 09:05:46;;;;;;;2.10;1.05;;;;;;;17.77;74.06;101657.31;6251570;28;20045;-77
2022/08/28 09:08:56;;;;;;;4.57;0.88;;;;;;;17.81;72.98;101654.31;6252342;28;20471;-81
2022/08/28 09:12:00;;;;;;;1.83;0.73;;;;;;;17.83;73.38;101655.06;6253153;28;20049;-81
2022/08/28 09:15:10;;;;;;;5.35;1.08;;;;;;;17.90;73.06;101652.84;6252363;28;20054;-81
2022/08/28 09:18:17;;;;;;;5.15;1.00;;;;;;;17.99;70.67;101662.84;6253400;28;20058;-80
2022/08/28 09:21:28;;;;;;;6.32;1.20;;;;;;;18.15;68.90;101659.94;6255556;28;20420;-78
2022/08/28 09:24:34;;;;;;;2.88;0.98;;;;;;;18.12;70.63;101658.34;6251823;28;20485;-83
2022/08/28 09:27:40;;;;;;;6.97;1.08;;;;;;;18.14;70.80;101653.75;6256261;28;20045;-81
2022/08/28 09:30:43;;;;;;;5.30;0.90;;;;;;;18.19;71.45;101659.59;6252031;28;20057;-81
2022/08/28 09:33:47;;;;;;;4.25;1.00;;;;;;;18.25;71.51;101664.47;6251816;28;20053;-82
2022/08/28 09:36:49;;;;;;;3.17;1.15;;;;;;;18.21;71.46;101667.47;6252154;28;20406;-79
2022/08/28 09:40:17;;;;;;;10.23;2.08;;;;;;;18.08;71.93;101667.50;6253323;28;20052;-78
2022/08/28 09:43:27;;;;;;;3.78;0.98;;;;;;;18.04;71.13;101665.16;6252971;28;20057;-82
2022/08/28 09:46:30;;;;;;;4.28;1.38;;;;;;;18.28;70.42;101659.91;6253976;28;20060;-81
2022/08/28 09:49:32;;;;;;;4.90;1.05;;;;;;;18.50;69.29;101662.75;6255189;28;20060;-79
2022/08/28 09:52:33;;;;;;;3.13;1.23;;;;;;;18.55;68.12;101638.44;6250866;28;20056;-81
2022/08/28 09:55:44;;;;;;;2.22;0.77;;;;;;;18.56;67.51;101654.31;6251040;28;20049;-81
2022/08/28 09:58:49;;;;;;;3.00;1.50;;;;;;;18.45;65.11;101670.22;6251323;28;20046;-81
2022/08/28 10:02:05;;;;;;;6.00;1.30;;;;;;;18.60;65.17;101653.13;6250294;28;20050;-82
2022/08/28 10:05:10;;;;;;;3.22;1.63;;;;;;;18.73;62.91;101655.78;6249670;28;20061;-81
2022/08/28 10:08:23;;;;;;;1.52;0.90;;;;;;;18.96;62.14;101654.94;6250146;28;20049;-81
2022/08/28 10:11:32;;;;;;;4.03;1.25;;;;;;;19.12;62.32;101645.78;6250044;28;20057;-82
2022/08/28 10:14:53;;;;;;;3.80;1.13;;;;;;;19.18;61.23;101664.84;6249750;28;20135;-81
2022/08/28 10:18:10;;;;;;;3.33;1.08;;;;;;;19.15;61.14;101654.41;6250421;28;20048;-79
2022/08/28 10:21:18;;;;;;;1.85;0.90;;;;;;;18.98;61.84;101650.31;6250321;28;20049;-80
2022/08/28 10:24:33;;;;;;;3.17;0.88;;;;;;;19.05;61.25;101641.88;6249723;28;20056;-81
2022/08/28 10:27:53;;;;;;;1.88;0.90;;;;;;;19.19;60.05;101650.53;6250128;28;20060;-79
2022/08/28 10:31:04;;;;;;;4.13;0.90;;;;;;;19.29;59.40;101656.03;6249261;28;20060;-81
2022/08/28 10:34:36;;;;;;;4.32;1.10;;;;;;;19.23;57.70;101654.69;6249643;28;20050;-81
2022/08/28 10:37:51;;;;;;;1.48;0.80;;;;;;;19.27;57.48;101652.63;6249978;28;20056;-81
2022/08/28 10:40:58;;;;;;;2.13;0.80;;;;;;;19.32;57.10;101649.63;6250226;28;20183;-79
2022/08/28 10:44:03;;;;;;;1.70;0.82;;;;;;;19.35;57.40;101642.25;6249787;28;20516;-82
2022/08/28 10:47:06;;;;;;;4.05;0.73;;;;;;;19.59;56.52;101654.66;6249923;28;20049;-78
2022/08/28 10:50:14;;;;;;;1.98;1.00;;;;;;;19.50;56.39;101651.72;6250811;28;20057;-79
2022/08/28 10:53:21;;;;;;;1.60;0.60;;;;;;;19.46;56.87;101646.75;6251854;28;20049;-81
2022/08/28 10:56:27;;;;;;;1.98;0.70;;;;;;;19.70;57.62;101657.38;6251544;28;20049;-82
2022/08/28 10:59:32;;;;;;;4.78;1.42;;;;;;;19.99;55.87;101642.63;6251031;28;20056;-81
2022/08/28 11:02:35;;;;;;;1.65;0.63;;;;;;;19.88;55.54;101641.75;6249769;28;20421;-79
2022/08/28 11:05:41;;;;;;;5.32;1.10;;;;;;;19.87;56.30;101656.91;6250913;28;20046;-78
2022/08/28 11:08:51;;;;;;;2.45;0.88;;;;;;;19.81;57.62;101661.91;6249972;28;20425;-82
2022/08/28 11:11:55;;;;;;;1.98;0.80;;;;;;;19.82;57.87;101652.91;6252927;28;20137;-81
2022/08/28 11:14:58;;;;;;;5.20;1.20;;;;;;;19.69;58.64;101661.03;6249754;28;20072;-80
2022/08/28 11:18:24;;;;;;;2.30;0.80;;;;;;;19.84;57.00;101654.47;6250493;28;20056;-81
2022/08/28 11:21:29;;;;;;;2.92;0.90;;;;;;;20.02;54.76;101654.84;6249324;28;20060;-79
2022/08/28 11:24:46;;;;;;;2.95;1.42;;;;;;;20.39;54.41;101660.78;6250030;28;20049;-81
2022/08/28 11:28:11;;;;;;;3.13;1.05;;;;;;;20.78;52.50;101642.53;6252409;28;20057;-80
2022/08/28 11:31:39;;;;;;;2.88;0.70;;;;;;;20.97;51.71;101644.53;6250013;28;20049;-80
2022/08/28 11:34:56;;;;;;;3.65;1.10;;;;;;;21.33;50.66;101648.66;6250266;28;20516;-82
2022/08/28 11:37:58;;;;;;;1.67;0.95;;;;;;;20.92;50.41;101646.75;6249139;28;20440;-81
2022/08/28 11:41:12;;;;;;;2.42;1.00;;;;;;;21.02;50.56;101655.69;6249224;28;20139;-81
2022/08/28 11:44:37;;;;;;;1.20;0.60;;;;;;;21.38;51.20;101656.31;6249377;28;20045;-81
2022/08/28 11:47:55;;;;;;;1.30;0.75;;;;;;;21.48;50.50;101651.84;6248938;28;20048;-82
2022/08/28 11:51:01;;;;;;;1.88;1.00;;;;;;;21.17;51.34;101666.97;6248135;28;20686;-80
2022/08/28 11:54:17;;;;;;;2.63;0.73;;;;;;;21.03;51.82;101655.59;6249096;28;20163;-80
2022/08/28 11:57:25;;;;;;;2.35;1.20;;;;;;;21.11;51.87;101651.41;6250401;28;20050;-83
2022/08/28 12:00:47;;;;;;;1.98;0.85;;;;;;;21.75;50.00;101640.63;6250816;28;20060;-83
2022/08/28 12:03:57;;;;;;;1.90;0.80;;;;;;;22.27;47.77;101649.50;6249852;28;20045;-80
2022/08/28 12:07:19;;;;;;;4.22;0.77;;;;;;;22.76;45.77;101654.00;6249822;28;20045;-79
2022/08/28 12:10:51;;;;;;;1.05;0.68;;;;;;;22.78;45.84;101643.13;6248736;28;20068;-78
2022/08/28 12:13:53;;;;;;;2.53;1.38;;;;;;;23.04;46.35;101649.66;6252082;28;20052;-81
2022/08/28 12:17:16;;;;;;;2.58;1.13;;;;;;;23.73;45.80;101658.50;6252030;28;20056;-81
2022/08/28 12:20:58;;;;;;;4.03;0.75;;;;;;;23.50;46.60;101647.22;6251669;28;20056;-82
2022/08/28 12:24:03;;;;;;;3.17;0.93;;;;;;;22.67;48.79;101646.78;6249294;28;20057;-78
2022/08/28 12:27:07;;;;;;;3.00;0.90;;;;;;;22.21;50.34;101644.66;6249126;28;20048;-80
2022/08/28 12:30:09;;;;;;;3.65;0.90;;;;;;;22.25;50.48;101646.09;6248139;28;20046;-78
2022/08/28 12:33:18;;;;;;;1.48;0.60;;;;;;;22.54;48.60;101648.88;6255069;28;20057;-78
2022/08/28 12:36:25;;;;;;;3.95;0.93;;;;;;;22.45;48.68;101647.00;6253097;28;20422;-78
2022/08/28 12:39:27;;;;;;;4.28;1.00;;;;;;;23.12;47.30;101648.09;6254926;28;20405;-80
2022/08/28 12:42:31;;;;;;;4.35;1.00;;;;;;;23.20;45.03;101635.66;6252470;28;20053;-80
2022/08/28 12:45:39;;;;;;;2.58;1.20;;;;;;;23.05;44.64;101645.16;6252545;28;20045;-79
2022/08/28 12:48:48;;;;;;;2.33;0.90;;;;;;;22.62;46.34;101656.19;6254019;28;20049;-78
2022/08/28 12:52:06;;;;;;;3.33;0.98;;;;;;;22.02;48.88;101648.94;6254444;28;20049;-78
2022/08/28 12:55:08;;;;;;;4.80;1.25;;;;;;;21.80;49.78;101654.44;6255287;28;20045;-80
2022/08/28 12:58:13;;;;;;;3.72;1.00;;;;;;;22.28;49.11;101649.34;6254443;28;20109;-78
2022/08/28 13:01:23;;;;;;;1.48;0.73;;;;;;;22.78;47.55;101645.81;6255014;28;20045;-79
2022/08/28 13:04:31;;;;;;;5.03;0.93;;;;;;;23.03;46.22;101649.81;6254026;28;20054;-79
2022/08/28 13:07:37;;;;;;;2.90;0.85;;;;;;;23.54;45.32;101641.44;6256803;28;20085;-80
2022/08/28 13:10:41;;;;;;;1.40;0.63;;;;;;;23.36;44.59;101647.69;6254486;28;20057;-79
2022/08/28 13:13:48;;;;;;;4.00;0.88;;;;;;;23.45;41.34;101647.66;6257087;28;20052;-81
2022/08/28 13:16:50;;;;;;;2.22;1.20;;;;;;;23.20;40.59;101635.66;6256990;28;20046;-81
2022/08/28 13:20:01;;;;;;;2.63;1.00;;;;;;;22.73;41.28;101637.34;6254725;28;20055;-79
2022/08/28 13:23:05;;;;;;;3.75;1.70;;;;;;;22.73;41.14;101643.53;6255234;28;20139;-79
2022/08/28 13:26:07;;;;;;;1.48;0.95;;;;;;;22.25;41.03;101636.22;6252256;28;20057;-80
2022/08/28 13:29:18;;;;;;;5.50;1.05;;;;;;;23.07;40.88;101624.38;6256560;28;20052;-80
2022/08/28 13:32:19;;;;;;;3.95;0.90;;;;;;;23.62;39.15;101629.09;6255971;28;20053;-81
2022/08/28 13:35:32;;;;;;;3.28;1.30;;;;;;;24.37;37.49;101627.31;6258385;28;20046;-80
2022/08/28 13:38:35;;;;;;;3.80;1.52;;;;;;;23.95;37.58;101635.84;6255505;28;20057;-81
2022/08/28 13:41:37;;;;;;;1.63;0.90;;;;;;;24.12;38.50;101626.13;6252443;28;20045;-81
2022/08/28 13:44:49;;;;;;;2.85;1.23;;;;;;;24.04;37.70;101624.22;6251535;28;20519;-80
2022/08/28 13:47:50;;;;;;;1.90;0.88;;;;;;;23.93;38.07;101627.91;6253647;28;20485;-79
2022/08/28 13:50:56;;;;;;;1.13;0.90;;;;;;;23.94;38.11;101615.34;6251554;28;20057;-79
2022/08/28 13:53:59;;;;;;;1.45;0.90;;;;;;;24.23;37.82;101620.56;6251113;28;20045;-80
2022/08/28 13:57:01;;;;;;;3.35;0.90;;;;;;;24.82;37.09;101610.31;6254250;28;20053;-80
2022/08/28 14:00:03;;;;;;;1.52;0.85;;;;;;;24.94;36.21;101618.00;6252493;28;20045;-80
2022/08/28 14:06:24;;;;;;;4.65;1.60;;;;;;;23.89;39.15;101614.94;6250471;28;20053;-80
2022/08/28 14:09:26;;;;;;;3.80;1.17;;;;;;;23.53;40.14;101618.28;6251506;28;20050;-79
2022/08/28 14:12:28;;;;;;;1.60;0.70;;;;;;;23.57;40.01;101618.81;6252010;28;20056;-80
2022/08/28 14:15:29;;;;;;;2.13;0.88;;;;;;;23.78;39.51;101608.75;6250652;28;20045;-79
2022/08/28 14:18:31;;;;;;;4.57;1.10;;;;;;;23.98;40.24;101612.22;6250730;28;20053;-78
2022/08/28 14:21:33;;;;;;;4.85;1.02;;;;;;;24.03;40.05;101614.47;6250072;28;20497;-81
2022/08/28 14:24:36;;;;;;;4.32;1.17;;;;;;;24.25;39.39;101607.81;6250389;28;20489;-81
2022/08/28 14:27:38;;;;;;;1.58;0.95;;;;;;;23.61;39.75;101616.69;6250654;28;20052;-78
2022/08/28 14:30:42;;;;;;;2.42;1.20;;;;;;;23.32;41.29;101611.41;6250040;28;20056;-80